createdAt,value
2018-10-12T00:01:05.000Z,100225
2018-10-12T00:02:05.000Z,100236
2018-10-12T00:04:05.000Z,100241
2018-10-12T00:05:05.000Z,100239
2018-10-12T00:07:05.000Z,100230
2018-10-12T00:09:05.000Z,100236
2018-10-12T00:11:05.000Z,100239
2018-10-12T00:12:05.000Z,100241
2018-10-12T00:14:05.000Z,100242
2018-10-12T00:16:05.000Z,100238
2018-10-12T00:17:05.000Z,100240
2018-10-12T00:18:49.000Z,100241
2018-10-12T00:20:05.000Z,100239
2018-10-12T00:22:05.000Z,100241
2018-10-12T00:24:05.000Z,100241
2018-10-12T00:26:05.000Z,100246
2018-10-12T00:28:05.000Z,100246
2018-10-12T00:30:05.000Z,100250
2018-10-12T00:32:04.000Z,100241
2018-10-12T00:33:49.000Z,100243
2018-10-12T00:35:04.000Z,100241
2018-10-12T00:37:04.000Z,100244
2018-10-12T00:38:04.000Z,100241
2018-10-12T00:40:04.000Z,100242
2018-10-12T00:42:04.000Z,100239
2018-10-12T00:44:04.000Z,100235
2018-10-12T00:45:49.000Z,100242
2018-10-12T00:47:04.000Z,100240
2018-10-12T00:48:04.000Z,100235
2018-10-12T00:50:04.000Z,100235
2018-10-12T00:51:04.000Z,100244
2018-10-12T00:52:49.000Z,100237
2018-10-12T00:53:49.000Z,100235
2018-10-12T00:55:04.000Z,100239
2018-10-12T00:56:04.000Z,100235
2018-10-12T00:57:04.000Z,100239
2018-10-12T00:59:04.000Z,100241
2018-10-12T01:00:34.000Z,100238
2018-10-12T01:02:04.000Z,100241
2018-10-12T01:03:04.000Z,100241
2018-10-12T01:04:04.000Z,100244
2018-10-12T01:06:04.000Z,100243
2018-10-12T01:08:04.000Z,100253
2018-10-12T01:09:04.000Z,100251
2018-10-12T01:11:04.000Z,100255
2018-10-12T01:13:04.000Z,100252
2018-10-12T01:15:04.000Z,100259
2018-10-12T01:16:49.000Z,100253
2018-10-12T01:18:04.000Z,100262
2018-10-12T01:20:04.000Z,100259
2018-10-12T01:21:04.000Z,100258
2018-10-12T01:23:04.000Z,100259
2018-10-12T01:24:04.000Z,100256
2018-10-12T01:26:04.000Z,100255
2018-10-12T01:27:04.000Z,100258
2018-10-12T01:29:04.000Z,100251
2018-10-12T01:31:04.000Z,100253
2018-10-12T01:33:04.000Z,100258
2018-10-12T01:35:05.000Z,100261
2018-10-12T01:36:50.000Z,100261
2018-10-12T01:38:05.000Z,100261
2018-10-12T01:39:50.000Z,100260
2018-10-12T01:41:05.000Z,100264
2018-10-12T01:42:05.000Z,100271
2018-10-12T01:44:05.000Z,100273
2018-10-12T01:46:05.000Z,100272
2018-10-12T01:48:05.000Z,100270
2018-10-12T01:49:05.000Z,100269
2018-10-12T01:51:05.000Z,100265
2018-10-12T01:53:05.000Z,100263
2018-10-12T01:55:05.000Z,100270
2018-10-12T01:56:50.000Z,100270
2018-10-12T01:58:05.000Z,100267
2018-10-12T02:00:05.000Z,100275
2018-10-12T02:01:50.000Z,100261
2018-10-12T02:03:05.000Z,100266
2018-10-12T02:04:50.000Z,100266
2018-10-12T02:06:05.000Z,100266
2018-10-12T02:08:05.000Z,100267
2018-10-12T02:09:05.000Z,100269
2018-10-12T02:10:05.000Z,100276
2018-10-12T02:11:05.000Z,100269
2018-10-12T02:13:05.000Z,100275
2018-10-12T02:14:05.000Z,100273
2018-10-12T02:16:05.000Z,100273
2018-10-12T02:17:05.000Z,100275
2018-10-12T02:19:05.000Z,100272
2018-10-12T02:20:05.000Z,100268
2018-10-12T02:22:05.000Z,100269
2018-10-12T02:24:05.000Z,100266
2018-10-12T02:26:05.000Z,100263
2018-10-12T02:28:05.000Z,100254
2018-10-12T02:29:05.000Z,100250
2018-10-12T02:31:05.000Z,100263
2018-10-12T02:32:50.000Z,100262
2018-10-12T02:34:05.000Z,100261
2018-10-12T02:36:05.000Z,100267
2018-10-12T02:37:05.000Z,100263
2018-10-12T02:38:05.000Z,100271
2018-10-12T02:40:05.000Z,100271
2018-10-12T02:41:05.000Z,100279
2018-10-12T02:42:05.000Z,100281
2018-10-12T02:44:05.000Z,100282
2018-10-12T02:45:05.000Z,100286
2018-10-12T02:47:05.000Z,100293
2018-10-12T02:48:05.000Z,100289
2018-10-12T02:49:49.000Z,100302
2018-10-12T02:51:05.000Z,100300
2018-10-12T02:53:05.000Z,100312
2018-10-12T02:55:05.000Z,100303
2018-10-12T02:56:05.000Z,100310
2018-10-12T02:57:34.000Z,100305
2018-10-12T02:59:05.000Z,100305
2018-10-12T03:01:05.000Z,100307
2018-10-12T03:02:05.000Z,100307
2018-10-12T03:04:05.000Z,100306
2018-10-12T03:05:05.000Z,100303
2018-10-12T03:07:05.000Z,100308
2018-10-12T03:09:05.000Z,100312
2018-10-12T03:11:05.000Z,100321
2018-10-12T03:13:05.000Z,100321
2018-10-12T03:15:05.000Z,100322
2018-10-12T03:17:05.000Z,100327
2018-10-12T03:19:05.000Z,100336
2018-10-12T03:21:05.000Z,100340
2018-10-12T03:22:05.000Z,100344
2018-10-12T03:24:05.000Z,100343
2018-10-12T03:26:05.000Z,100342
2018-10-12T03:28:05.000Z,100340
2018-10-12T03:30:05.000Z,100340
2018-10-12T03:31:05.000Z,100346
2018-10-12T03:32:05.000Z,100346
2018-10-12T03:34:05.000Z,100350
2018-10-12T03:36:05.000Z,100354
2018-10-12T03:38:05.000Z,100368
2018-10-12T03:40:05.000Z,100367
2018-10-12T03:41:50.000Z,100360
2018-10-12T03:43:05.000Z,100372
2018-10-12T03:44:50.000Z,100378
2018-10-12T03:46:05.000Z,100371
2018-10-12T03:47:05.000Z,100371
2018-10-12T03:48:05.000Z,100376
2018-10-12T03:49:50.000Z,100372
2018-10-12T03:51:05.000Z,100373
2018-10-12T03:52:05.000Z,100373
2018-10-12T03:53:05.000Z,100370
2018-10-12T03:55:05.000Z,100369
2018-10-12T03:57:05.000Z,100378
2018-10-12T03:58:05.000Z,100379
2018-10-12T03:59:50.000Z,100376
2018-10-12T04:01:05.000Z,100372
2018-10-12T04:03:05.000Z,100383
2018-10-12T04:04:05.000Z,100379
2018-10-12T04:05:50.000Z,100385
2018-10-12T04:07:05.000Z,100387
2018-10-12T04:08:05.000Z,100381
2018-10-12T04:09:05.000Z,100387
2018-10-12T04:11:05.000Z,100389
2018-10-12T04:13:05.000Z,100396
2018-10-12T04:15:05.000Z,100399
2018-10-12T04:17:05.000Z,100397
2018-10-12T04:18:50.000Z,100406
2018-10-12T04:20:05.000Z,100399
2018-10-12T04:21:05.000Z,100406
2018-10-12T04:23:05.000Z,100416
2018-10-12T04:25:05.000Z,100418
2018-10-12T04:27:05.000Z,100430
2018-10-12T04:28:05.000Z,100428
2018-10-12T04:30:05.000Z,100427
2018-10-12T04:31:05.000Z,100427
2018-10-12T04:33:05.000Z,100428
2018-10-12T04:35:05.000Z,100434
2018-10-12T04:36:50.000Z,100438
2018-10-12T04:38:05.000Z,100439
2018-10-12T04:39:05.000Z,100442
2018-10-12T04:41:05.000Z,100443
2018-10-12T04:42:05.000Z,100439
2018-10-12T04:43:50.000Z,100436
2018-10-12T04:44:50.000Z,100445
2018-10-12T04:46:05.000Z,100450
2018-10-12T04:48:05.000Z,100452
2018-10-12T04:49:05.000Z,100453
2018-10-12T04:51:05.000Z,100454
2018-10-12T04:52:50.000Z,100451
2018-10-12T04:54:05.000Z,100449
2018-10-12T04:56:05.000Z,100441
2018-10-12T04:58:05.000Z,100437
2018-10-12T05:00:05.000Z,100446
2018-10-12T05:01:50.000Z,100440
2018-10-12T05:03:05.000Z,100447
2018-10-12T05:04:50.000Z,100455
2018-10-12T05:06:05.000Z,100463
2018-10-12T05:08:05.000Z,100464
2018-10-12T05:10:05.000Z,100470
2018-10-12T05:12:05.000Z,100477
2018-10-12T05:13:05.000Z,100482
2018-10-12T05:14:50.000Z,100487
2018-10-12T05:16:05.000Z,100486
2018-10-12T05:18:05.000Z,100486
2018-10-12T05:19:50.000Z,100493
2018-10-12T05:21:05.000Z,100494
2018-10-12T05:22:05.000Z,100491
2018-10-12T05:23:05.000Z,100495
2018-10-12T05:24:05.000Z,100492
2018-10-12T05:26:05.000Z,100497
2018-10-12T05:27:05.000Z,100501
2018-10-12T05:28:05.000Z,100493
2018-10-12T05:29:05.000Z,100497
2018-10-12T05:31:05.000Z,100499
2018-10-12T05:33:05.000Z,100503
2018-10-12T05:34:05.000Z,100507
2018-10-12T05:36:05.000Z,100512
2018-10-12T05:38:05.000Z,100515
2018-10-12T05:40:05.000Z,100522
2018-10-12T05:42:05.000Z,100525
2018-10-12T05:44:05.000Z,100524
2018-10-12T05:45:50.000Z,100535
2018-10-12T05:47:05.000Z,100541
2018-10-12T05:49:05.000Z,100545
2018-10-12T05:51:04.000Z,100548
2018-10-12T05:52:04.000Z,100545
2018-10-12T05:53:49.000Z,100547
2018-10-12T05:55:05.000Z,100549
2018-10-12T05:56:05.000Z,100553
2018-10-12T05:57:49.000Z,100548
2018-10-12T05:59:04.000Z,100551
2018-10-12T06:00:05.000Z,100554
2018-10-12T06:02:05.000Z,100565
2018-10-12T06:03:05.000Z,100560
2018-10-12T06:05:05.000Z,100565
2018-10-12T06:06:05.000Z,100573
2018-10-12T06:08:05.000Z,100575
2018-10-12T06:09:05.000Z,100578
2018-10-12T06:11:05.000Z,100579
2018-10-12T06:13:04.000Z,100584
2018-10-12T06:15:05.000Z,100586
2018-10-12T06:16:49.000Z,100591
2018-10-12T06:18:04.000Z,100596
2018-10-12T06:19:05.000Z,100595
2018-10-12T06:21:04.000Z,100598
2018-10-12T06:22:05.000Z,100593
2018-10-12T06:24:05.000Z,100598
2018-10-12T06:26:05.000Z,100600
2018-10-12T06:28:05.000Z,100602
2018-10-12T06:29:05.000Z,100604
2018-10-12T06:31:05.000Z,100600
2018-10-12T06:32:05.000Z,100602
2018-10-12T06:34:05.000Z,100608
2018-10-12T06:36:04.000Z,100609
2018-10-12T06:37:05.000Z,100614
2018-10-12T06:38:05.000Z,100617
2018-10-12T06:39:05.000Z,100615
2018-10-12T06:40:49.000Z,100620
2018-10-12T06:42:05.000Z,100621
2018-10-12T06:44:05.000Z,100624
2018-10-12T06:46:05.000Z,100616
2018-10-12T06:48:04.000Z,100625
2018-10-12T06:49:04.000Z,100623
2018-10-12T06:50:05.000Z,100629
2018-10-12T06:51:05.000Z,100625
2018-10-12T06:53:05.000Z,100627
2018-10-12T06:54:05.000Z,100627
2018-10-12T06:55:05.000Z,100623
2018-10-12T06:56:34.000Z,100629
2018-10-12T06:58:05.000Z,100629
2018-10-12T07:00:05.000Z,100639
2018-10-12T07:01:05.000Z,100635
2018-10-12T07:03:05.000Z,100638
2018-10-12T07:04:50.000Z,100633
2018-10-12T07:06:05.000Z,100640
2018-10-12T07:08:05.000Z,100640
2018-10-12T07:09:05.000Z,100648
2018-10-12T07:11:05.000Z,100651
2018-10-12T07:13:05.000Z,100648
2018-10-12T07:15:05.000Z,100647
2018-10-12T07:17:05.000Z,100652
2018-10-12T07:19:05.000Z,100650
2018-10-12T07:21:05.000Z,100651
2018-10-12T07:22:05.000Z,100654
2018-10-12T07:24:05.000Z,100656
2018-10-12T07:25:05.000Z,100659
2018-10-12T07:27:05.000Z,100661
2018-10-12T07:28:05.000Z,100666
2018-10-12T07:30:05.000Z,100665
2018-10-12T07:31:50.000Z,100662
2018-10-12T07:33:05.000Z,100660
2018-10-12T07:35:05.000Z,100663
2018-10-12T07:37:05.000Z,100667
2018-10-12T07:39:05.000Z,100669
2018-10-12T07:41:05.000Z,100672
2018-10-12T07:42:50.000Z,100681
2018-10-12T07:44:05.000Z,100683
2018-10-12T07:46:05.000Z,100695
2018-10-12T07:48:05.000Z,100691
2018-10-12T07:50:05.000Z,100695
2018-10-12T07:52:05.000Z,100692
2018-10-12T07:54:05.000Z,100701
2018-10-12T07:56:05.000Z,100698
2018-10-12T07:58:05.000Z,100706
2018-10-12T08:00:05.000Z,100708
2018-10-12T08:01:05.000Z,100707
2018-10-12T08:03:05.000Z,100709
2018-10-12T08:04:05.000Z,100710
2018-10-12T08:05:05.000Z,100709
2018-10-12T08:07:05.000Z,100712
2018-10-12T08:09:05.000Z,100707
2018-10-12T08:10:49.000Z,100708
2018-10-12T08:12:05.000Z,100700
2018-10-12T08:14:05.000Z,100702
2018-10-12T08:16:05.000Z,100707
2018-10-12T08:17:05.000Z,100712
2018-10-12T08:18:05.000Z,100708
2018-10-12T08:20:05.000Z,100714
2018-10-12T08:22:05.000Z,100710
2018-10-12T08:24:05.000Z,100709
2018-10-12T08:26:05.000Z,100705
2018-10-12T08:27:49.000Z,100709
2018-10-12T08:29:05.000Z,100714
2018-10-12T08:31:05.000Z,100714
2018-10-12T08:33:05.000Z,100724
2018-10-12T08:34:05.000Z,100718
2018-10-12T08:35:05.000Z,100723
2018-10-12T08:36:05.000Z,100725
2018-10-12T08:37:49.000Z,100731
2018-10-12T08:39:05.000Z,100740
2018-10-12T08:41:05.000Z,100738
2018-10-12T08:43:05.000Z,100731
2018-10-12T08:44:49.000Z,100741
2018-10-12T08:46:05.000Z,100737
2018-10-12T08:48:05.000Z,100750
2018-10-12T08:50:05.000Z,100756
2018-10-12T08:51:49.000Z,100745
2018-10-12T08:53:05.000Z,100749
2018-10-12T08:55:05.000Z,100762
2018-10-12T08:56:35.000Z,100767
2018-10-12T08:58:05.000Z,100766
2018-10-12T09:00:05.000Z,100767
2018-10-12T09:02:05.000Z,100766
2018-10-12T09:04:05.000Z,100778
2018-10-12T09:06:05.000Z,100777
2018-10-12T09:08:05.000Z,100774
2018-10-12T09:10:05.000Z,100773
2018-10-12T09:12:05.000Z,100768
2018-10-12T09:13:50.000Z,100778
2018-10-12T09:15:05.000Z,100775
2018-10-12T09:16:50.000Z,100773
2018-10-12T09:19:05.000Z,100791
2018-10-12T09:20:05.000Z,100775
2018-10-12T09:22:05.000Z,100793
2018-10-12T09:23:05.000Z,100776
2018-10-12T09:25:05.000Z,100777
2018-10-12T09:26:05.000Z,100782
2018-10-12T09:28:05.000Z,100787
2018-10-12T09:29:05.000Z,100784
2018-10-12T09:31:05.000Z,100781
2018-10-12T09:33:05.000Z,100786
2018-10-12T09:35:05.000Z,100790
2018-10-12T09:36:05.000Z,100791
2018-10-12T09:38:05.000Z,100780
2018-10-12T09:39:05.000Z,100790
2018-10-12T09:41:05.000Z,100795
2018-10-12T09:42:05.000Z,100796
2018-10-12T09:44:05.000Z,100796
2018-10-12T09:45:05.000Z,100785
2018-10-12T09:47:05.000Z,100781
2018-10-12T09:48:05.000Z,100781
2018-10-12T09:50:05.000Z,100782
2018-10-12T09:52:05.000Z,100784
2018-10-12T09:53:05.000Z,100782
2018-10-12T09:54:50.000Z,100786
2018-10-12T09:56:05.000Z,100784
2018-10-12T09:58:05.000Z,100794
2018-10-12T09:59:05.000Z,100782
2018-10-12T10:00:05.000Z,100787
2018-10-12T10:02:05.000Z,100796
2018-10-12T10:04:05.000Z,100777
2018-10-12T10:06:05.000Z,100783
2018-10-12T10:07:50.000Z,100725
2018-10-12T10:10:05.000Z,100774
2018-10-12T10:11:05.000Z,100761
2018-10-12T10:12:05.000Z,100774
2018-10-12T10:14:05.000Z,100771
2018-10-12T10:15:05.000Z,100762
2018-10-12T10:17:05.000Z,100759
2018-10-12T10:19:05.000Z,100773
2018-10-12T10:20:05.000Z,100768
2018-10-12T10:22:05.000Z,100757
2018-10-12T10:24:05.000Z,100772
2018-10-12T10:25:05.000Z,100772
2018-10-12T10:26:05.000Z,100783
2018-10-12T10:28:05.000Z,100767
2018-10-12T10:30:05.000Z,100779
2018-10-12T10:31:05.000Z,100769
2018-10-12T10:33:05.000Z,100772
2018-10-12T10:34:05.000Z,100779
2018-10-12T10:36:05.000Z,100773
2018-10-12T10:38:05.000Z,100766
2018-10-12T10:40:05.000Z,100769
2018-10-12T10:42:05.000Z,100772
2018-10-12T10:44:05.000Z,100769
2018-10-12T10:46:05.000Z,100761
2018-10-12T10:47:50.000Z,100754
2018-10-12T10:49:05.000Z,100754
2018-10-12T10:51:05.000Z,100759
2018-10-12T10:53:05.000Z,100753
2018-10-12T10:54:05.000Z,100747
2018-10-12T10:56:05.000Z,100740
2018-10-12T10:57:05.000Z,100743
2018-10-12T10:58:50.000Z,100736
2018-10-12T11:00:05.000Z,100746
2018-10-12T11:01:05.000Z,100730
2018-10-12T11:03:05.000Z,100738
2018-10-12T11:04:05.000Z,100739
2018-10-12T11:05:50.000Z,100733
2018-10-12T11:07:05.000Z,100722
2018-10-12T11:09:05.000Z,100719
2018-10-12T11:10:05.000Z,100723
2018-10-12T11:12:05.000Z,100726
2018-10-12T11:14:05.000Z,100722
2018-10-12T11:15:05.000Z,100726
2018-10-12T11:17:05.000Z,100731
2018-10-12T11:19:05.000Z,100728
2018-10-12T11:20:05.000Z,100726
2018-10-12T11:22:05.000Z,100738
2018-10-12T11:23:49.000Z,100732
2018-10-12T11:25:05.000Z,100735
2018-10-12T11:26:05.000Z,100733
2018-10-12T11:27:49.000Z,100730
2018-10-12T11:29:05.000Z,100728
2018-10-12T11:31:05.000Z,100735
2018-10-12T11:33:05.000Z,100737
2018-10-12T11:35:05.000Z,100728
2018-10-12T11:36:49.000Z,100722
2018-10-12T11:38:05.000Z,100725
2018-10-12T11:40:05.000Z,100720
2018-10-12T11:41:50.000Z,100740
2018-10-12T11:44:05.000Z,100720
2018-10-12T11:46:05.000Z,100716
2018-10-12T11:48:05.000Z,100719
2018-10-12T11:50:05.000Z,100707
2018-10-12T11:51:05.000Z,100712
2018-10-12T11:53:05.000Z,100709
2018-10-12T11:54:05.000Z,100714
2018-10-12T11:56:05.000Z,100721
2018-10-12T11:57:05.000Z,100719
2018-10-12T11:59:05.000Z,100723
2018-10-12T12:01:05.000Z,100714
2018-10-12T12:03:05.000Z,100705
2018-10-12T12:05:05.000Z,100707
2018-10-12T12:06:05.000Z,100706
2018-10-12T12:08:05.000Z,100709
2018-10-12T12:10:05.000Z,100709
2018-10-12T12:12:05.000Z,100732
2018-10-12T12:14:05.000Z,100712
2018-10-12T12:16:05.000Z,100717
2018-10-12T12:17:05.000Z,100716
2018-10-12T12:19:05.000Z,100715
2018-10-12T12:21:05.000Z,100715
2018-10-12T12:23:05.000Z,100707
2018-10-12T12:25:05.000Z,100718
2018-10-12T12:27:05.000Z,100710
2018-10-12T12:28:50.000Z,100699
2018-10-12T12:30:05.000Z,100707
2018-10-12T12:32:05.000Z,100710
2018-10-12T12:34:05.000Z,100714
2018-10-12T12:35:05.000Z,100709
2018-10-12T12:37:05.000Z,100704
2018-10-12T12:39:05.000Z,100698
2018-10-12T12:40:50.000Z,100704
2018-10-12T12:42:05.000Z,100706
2018-10-12T12:43:05.000Z,100712
2018-10-12T12:45:05.000Z,100711
2018-10-12T12:47:05.000Z,100703
2018-10-12T12:49:05.000Z,100707
2018-10-12T12:50:05.000Z,100709
2018-10-12T12:52:05.000Z,100717
2018-10-12T12:54:05.000Z,100705
2018-10-12T12:55:50.000Z,100702
2018-10-12T12:57:05.000Z,100694
2018-10-12T12:58:50.000Z,100705
2018-10-12T13:00:05.000Z,100693
2018-10-12T13:01:50.000Z,100697
2018-10-12T13:03:05.000Z,100708
2018-10-12T13:04:50.000Z,100702
2018-10-12T13:06:05.000Z,100707
2018-10-12T13:08:05.000Z,100701
2018-10-12T13:09:05.000Z,100703
2018-10-12T13:11:05.000Z,100706
2018-10-12T13:12:50.000Z,100713
2018-10-12T13:14:05.000Z,100697
2018-10-12T13:16:05.000Z,100714
2018-10-12T13:17:49.000Z,100710
2018-10-12T13:19:05.000Z,100710
2018-10-12T13:20:05.000Z,100717
2018-10-12T13:21:05.000Z,100706
2018-10-12T13:23:05.000Z,100712
2018-10-12T13:24:05.000Z,100720
2018-10-12T13:26:05.000Z,100720
2018-10-12T13:27:49.000Z,100716
2018-10-12T13:29:05.000Z,100723
2018-10-12T13:31:05.000Z,100717
2018-10-12T13:33:05.000Z,100726
2018-10-12T13:34:05.000Z,100724
2018-10-12T13:36:05.000Z,100718
2018-10-12T13:38:05.000Z,100738
2018-10-12T13:39:05.000Z,100731
2018-10-12T13:41:05.000Z,100724
2018-10-12T13:43:05.000Z,100721
2018-10-12T13:45:05.000Z,100717
2018-10-12T13:46:05.000Z,100720
2018-10-12T13:48:05.000Z,100723
2018-10-12T13:50:05.000Z,100703
2018-10-12T13:52:05.000Z,100706
2018-10-12T13:53:05.000Z,100712
2018-10-12T13:55:05.000Z,100713
2018-10-12T13:56:05.000Z,100721
2018-10-12T13:57:05.000Z,100716
2018-10-12T13:59:05.000Z,100717
2018-10-12T14:00:49.000Z,100709
2018-10-12T14:02:05.000Z,100707
2018-10-12T14:03:50.000Z,100715
2018-10-12T14:05:05.000Z,100705
2018-10-12T14:06:05.000Z,100713
2018-10-12T14:08:05.000Z,100711
2018-10-12T14:10:05.000Z,100721
2018-10-12T14:12:05.000Z,100721
2018-10-12T14:13:05.000Z,100732
2018-10-12T14:14:05.000Z,100725
2018-10-12T14:16:05.000Z,100719
2018-10-12T14:18:05.000Z,100717
2018-10-12T14:20:05.000Z,100716
2018-10-12T14:22:05.000Z,100726
2018-10-12T14:23:05.000Z,100724
2018-10-12T14:25:05.000Z,100722
2018-10-12T14:26:05.000Z,100731
2018-10-12T14:28:05.000Z,100725
2018-10-12T14:29:50.000Z,100724
2018-10-12T14:31:05.000Z,100735
2018-10-12T14:33:05.000Z,100727
2018-10-12T14:35:05.000Z,100724
2018-10-12T14:37:05.000Z,100724
2018-10-12T14:39:05.000Z,100725
2018-10-12T14:41:05.000Z,100723
2018-10-12T14:43:05.000Z,100717
2018-10-12T14:45:05.000Z,100721
2018-10-12T14:47:05.000Z,100719
2018-10-12T14:48:05.000Z,100725
2018-10-12T14:50:05.000Z,100729
2018-10-12T14:52:05.000Z,100731
2018-10-12T14:53:05.000Z,100726
2018-10-12T14:55:05.000Z,100732
2018-10-12T14:57:05.000Z,100723
2018-10-12T14:58:05.000Z,100728
2018-10-12T14:59:05.000Z,100726
2018-10-12T15:01:05.000Z,100729
2018-10-12T15:02:05.000Z,100730
2018-10-12T15:04:05.000Z,100723
2018-10-12T15:05:05.000Z,100725
2018-10-12T15:07:05.000Z,100725
2018-10-12T15:08:50.000Z,100719
2018-10-12T15:10:05.000Z,100716
2018-10-12T15:12:05.000Z,100716
2018-10-12T15:14:05.000Z,100709
2018-10-12T15:16:05.000Z,100713
2018-10-12T15:17:50.000Z,100715
2018-10-12T15:19:05.000Z,100713
2018-10-12T15:20:05.000Z,100697
2018-10-12T15:21:50.000Z,100714
2018-10-12T15:23:05.000Z,100703
2018-10-12T15:25:05.000Z,100716
2018-10-12T15:26:05.000Z,100708
2018-10-12T15:28:05.000Z,100712
2018-10-12T15:30:05.000Z,100716
2018-10-12T15:31:49.000Z,100722
2018-10-12T15:33:05.000Z,100721
2018-10-12T15:34:05.000Z,100716
2018-10-12T15:35:05.000Z,100719
2018-10-12T15:37:05.000Z,100720
2018-10-12T15:38:05.000Z,100718
2018-10-12T15:39:05.000Z,100716
2018-10-12T15:40:49.000Z,100718
2018-10-12T15:42:05.000Z,100713
2018-10-12T15:44:05.000Z,100712
2018-10-12T15:45:05.000Z,100715
2018-10-12T15:47:05.000Z,100715
2018-10-12T15:49:05.000Z,100719
2018-10-12T15:51:05.000Z,100715
2018-10-12T15:53:05.000Z,100712
2018-10-12T15:54:05.000Z,100720
2018-10-12T15:55:05.000Z,100725
2018-10-12T15:56:49.000Z,100720
2018-10-12T15:58:05.000Z,100725
2018-10-12T15:59:05.000Z,100719
2018-10-12T16:00:05.000Z,100726
2018-10-12T16:02:05.000Z,100721
2018-10-12T16:03:05.000Z,100730
2018-10-12T16:04:05.000Z,100727
2018-10-12T16:06:05.000Z,100726
2018-10-12T16:08:05.000Z,100723
2018-10-12T16:09:05.000Z,100714
2018-10-12T16:11:05.000Z,100720
2018-10-12T16:12:05.000Z,100729
2018-10-12T16:14:05.000Z,100719
2018-10-12T16:15:05.000Z,100723
2018-10-12T16:17:05.000Z,100717
2018-10-12T16:18:49.000Z,100723
2018-10-12T16:20:05.000Z,100724
2018-10-12T16:22:05.000Z,100726
2018-10-12T16:23:05.000Z,100729
2018-10-12T16:25:05.000Z,100727
2018-10-12T16:26:05.000Z,100733
2018-10-12T16:28:05.000Z,100725
2018-10-12T16:30:05.000Z,100723
2018-10-12T16:31:05.000Z,100722
2018-10-12T16:33:05.000Z,100730
2018-10-12T16:35:05.000Z,100731
2018-10-12T16:36:05.000Z,100731
2018-10-12T16:38:05.000Z,100734
2018-10-12T16:40:05.000Z,100737
2018-10-12T16:42:05.000Z,100733
2018-10-12T16:44:05.000Z,100733
2018-10-12T16:46:05.000Z,100741
2018-10-12T16:48:05.000Z,100746
2018-10-12T16:49:05.000Z,100743
2018-10-12T16:51:05.000Z,100749
2018-10-12T16:52:05.000Z,100747
2018-10-12T16:53:05.000Z,100747
2018-10-12T16:54:05.000Z,100753
2018-10-12T16:56:05.000Z,100753
2018-10-12T16:57:05.000Z,100750
2018-10-12T16:59:05.000Z,100749
2018-10-12T17:01:05.000Z,100749
2018-10-12T17:02:50.000Z,100751
2018-10-12T17:04:05.000Z,100752
2018-10-12T17:05:05.000Z,100751
2018-10-12T17:06:05.000Z,100750
2018-10-12T17:07:05.000Z,100751
2018-10-12T17:08:05.000Z,100752
2018-10-12T17:10:05.000Z,100751
2018-10-12T17:12:05.000Z,100754
2018-10-12T17:13:05.000Z,100754
2018-10-12T17:15:05.000Z,100752
2018-10-12T17:17:05.000Z,100761
2018-10-12T17:19:05.000Z,100758
2018-10-12T17:20:05.000Z,100756
2018-10-12T17:21:35.000Z,100757
2018-10-12T17:23:05.000Z,100762
2018-10-12T17:25:05.000Z,100767
2018-10-12T17:26:05.000Z,100760
2018-10-12T17:27:50.000Z,100765
2018-10-12T17:29:05.000Z,100764
2018-10-12T17:31:04.000Z,100765
2018-10-12T17:32:04.000Z,100760
2018-10-12T17:34:04.000Z,100771
2018-10-12T17:36:04.000Z,100780
2018-10-12T17:38:04.000Z,100776
2018-10-12T17:39:49.000Z,100774
2018-10-12T17:41:04.000Z,100781
2018-10-12T17:42:04.000Z,100789
2018-10-12T17:43:49.000Z,100786
2018-10-12T17:45:04.000Z,100794
2018-10-12T17:47:04.000Z,100791
2018-10-12T17:49:04.000Z,100790
2018-10-12T17:50:04.000Z,100788
2018-10-12T17:51:34.000Z,100797
2018-10-12T17:53:04.000Z,100794
2018-10-12T17:55:04.000Z,100788
2018-10-12T17:56:04.000Z,100790
2018-10-12T17:58:04.000Z,100798
2018-10-12T18:00:04.000Z,100801
2018-10-12T18:02:04.000Z,100789
2018-10-12T18:03:49.000Z,100791
2018-10-12T18:05:04.000Z,100792
2018-10-12T18:07:04.000Z,100794
2018-10-12T18:09:04.000Z,100792
2018-10-12T18:10:04.000Z,100800
2018-10-12T18:11:04.000Z,100800
2018-10-12T18:12:34.000Z,100794
2018-10-12T18:14:04.000Z,100794
2018-10-12T18:16:04.000Z,100795
2018-10-12T18:17:49.000Z,100788
2018-10-12T18:19:04.000Z,100793
2018-10-12T18:21:04.000Z,100789
2018-10-12T18:22:04.000Z,100786
2018-10-12T18:24:04.000Z,100787
2018-10-12T18:25:04.000Z,100786
2018-10-12T18:27:04.000Z,100785
2018-10-12T18:28:04.000Z,100786
2018-10-12T18:29:04.000Z,100790
2018-10-12T18:30:04.000Z,100791
2018-10-12T18:32:04.000Z,100792
2018-10-12T18:33:05.000Z,100791
2018-10-12T18:34:05.000Z,100793
2018-10-12T18:36:05.000Z,100790
2018-10-12T18:38:05.000Z,100788
2018-10-12T18:39:05.000Z,100793
2018-10-12T18:40:05.000Z,100791
2018-10-12T18:42:05.000Z,100794
2018-10-12T18:44:05.000Z,100793
2018-10-12T18:45:05.000Z,100795
2018-10-12T18:47:05.000Z,100801
2018-10-12T18:48:05.000Z,100809
2018-10-12T18:49:50.000Z,100803
2018-10-12T18:51:05.000Z,100806
2018-10-12T18:52:50.000Z,100800
2018-10-12T18:54:05.000Z,100805
2018-10-12T18:55:05.000Z,100804
2018-10-12T18:57:05.000Z,100802
2018-10-12T18:59:05.000Z,100810
2018-10-12T19:01:05.000Z,100807
2018-10-12T19:03:05.000Z,100813
2018-10-12T19:05:05.000Z,100809
2018-10-12T19:06:50.000Z,100809
2018-10-12T19:08:05.000Z,100810
2018-10-12T19:10:05.000Z,100811
2018-10-12T19:12:05.000Z,100810
2018-10-12T19:14:05.000Z,100810
2018-10-12T19:16:05.000Z,100813
2018-10-12T19:18:05.000Z,100818
2018-10-12T19:20:05.000Z,100818
2018-10-12T19:22:05.000Z,100821
2018-10-12T19:23:05.000Z,100828
2018-10-12T19:24:05.000Z,100826
2018-10-12T19:26:05.000Z,100830
2018-10-12T19:27:05.000Z,100832
2018-10-12T19:28:05.000Z,100827
2018-10-12T19:30:05.000Z,100823
2018-10-12T19:32:05.000Z,100827
2018-10-12T19:33:05.000Z,100825
2018-10-12T19:34:05.000Z,100827
2018-10-12T19:36:05.000Z,100828
2018-10-12T19:38:05.000Z,100837
2018-10-12T19:40:05.000Z,100830
2018-10-12T19:41:05.000Z,100839
2018-10-12T19:43:05.000Z,100838
2018-10-12T19:44:05.000Z,100839
2018-10-12T19:46:05.000Z,100838
2018-10-12T19:48:05.000Z,100843
2018-10-12T19:49:05.000Z,100836
2018-10-12T19:50:49.000Z,100834
2018-10-12T19:52:05.000Z,100838
2018-10-12T19:54:05.000Z,100831
2018-10-12T19:55:05.000Z,100841
2018-10-12T19:57:05.000Z,100845
2018-10-12T19:59:05.000Z,100839
2018-10-12T20:00:05.000Z,100835
2018-10-12T20:01:05.000Z,100846
2018-10-12T20:03:05.000Z,100844
2018-10-12T20:05:05.000Z,100845